Flight Track Log - Related Links

Times and Time Zones

All times are in EDT time to prevent confusion due to time zone crossing. See the ASQ5750 flight status page for this flight to view local times or setup timezone preferences in your user account.

Time Position Orientation Groundspeed Altitude Reporting Facility
EDT Latitude Longitude Course Direction KTS MPH feet Rate Location/Type
Tue 10:42:44 AM 39.0333 -84.6667 313° West 187 215 1,500  Level Cincinnati TRACON
Tue 10:43:14 AM 39.0167 -84.7000 237° Southwest 184 212 2,200 1,733 Climbing Cincinnati TRACON
Tue 10:44:14 AM 39.0667 -84.7500 322° Northwest 268 308 4,100 2,300 Climbing Cincinnati TRACON
Tue 10:45:00 AM 38.8833 -84.7131 270° West  Level FlightAware Approximate
Tue 10:45:14 AM 39.1333 -84.7833 339° North 270 311 6,800  Level Cincinnati TRACON
Tue 10:46:00 AM 38.9104 -84.7878 313° West  Level FlightAware Approximate
Tue 10:47:00 AM 38.9569 -84.8529 313° West  Level FlightAware Approximate
Tue 10:47:00 AM 39.2456 -84.8531 334° Northwest 284 327 10,000  Level Indianapolis Center
Tue 10:48:02 AM 39.3339 -84.8972 339° North 320 368 11,100 1,597 Climbing Indianapolis Center
Tue 10:49:04 AM 39.4264 -84.9447 338° Northwest 349 402 13,300 2,000 Climbing Indianapolis Center
Tue 10:50:05 AM 39.5181 -84.9903 339° North 350 403 15,200 1,512 Climbing Indianapolis Center
Tue 10:51:07 AM 39.6256 -85.0464 338° Northwest 352 405 16,400 1,065 Climbing Indianapolis Center
Tue 10:52:09 AM 39.7242 -85.1017 337° Northwest 370 426 17,400 1,113 Climbing Indianapolis Center
Tue 10:53:11 AM 39.8208 -85.1597 335° Northwest 376 433 18,700 1,065 Climbing Indianapolis Center
Tue 10:54:13 AM 39.9131 -85.2303 330° Northwest 380 437 19,600 919 Climbing Indianapolis Center
Tue 10:55:15 AM 40.0075 -85.3033 329° Northwest 387 445 20,600 919 Climbing Indianapolis Center
Tue 10:56:17 AM 40.1053 -85.3767 330° Northwest 396 456 21,500 832 Climbing Indianapolis Center
Tue 10:56:56 AM 40.1736 -85.4286 330° Northwest 402 463 22,000 297 Climbing Chicago Center
Tue 10:57:58 AM 40.2692 -85.5031 329° Northwest 401 461 22,000  Level Chicago Center
Tue 10:59:00 AM 40.3522 -85.5978 319° Northwest 401 461 22,000  Level Chicago Center
Tue 11:00:02 AM 40.4242 -85.7092 310° West 400 460 22,000  Level Chicago Center
Tue 11:01:03 AM 40.4972 -85.8208 311° West 401 461 22,000  Level Chicago Center
Tue 11:02:05 AM 40.5683 -85.9308 310° West 396 456 22,000  Level Chicago Center
Tue 11:03:07 AM 40.6406 -86.0425 310° West 400 460 22,000  Level Chicago Center
Tue 11:04:09 AM 40.7261 -86.1772 310° West 398 458 22,000  Level Chicago Center
Tue 11:05:10 AM 40.7975 -86.2883 310° West 397 457 22,000  Level Chicago Center
Tue 11:06:12 AM 40.8694 -86.4017 310° West 400 460 22,000  Level Chicago Center
Tue 11:07:14 AM 40.9394 -86.5133 310° West 396 456 22,000  Level Chicago Center
Tue 11:08:15 AM 41.0119 -86.6275 310° West 402 463 22,000 -683 Level Chicago Center
Tue 11:09:17 AM 41.0889 -86.7500 310° West 400 460 20,600 -1,694 Descending Chicago Center
Tue 11:10:19 AM 41.1614 -86.8658 310° West 407 468 18,500 -1,951 Descending Chicago Center
Tue 11:11:20 AM 41.2342 -86.9833 309° West 414 476 16,600 -2,439 Descending Chicago Center
Tue 11:12:22 AM 41.3028 -87.0917 310° West 390 449 13,500 -2,226 Descending Chicago Center
Tue 11:13:24 AM 41.3811 -87.2125 311° West 366 421 12,000 -1,172 Descending Chicago Center
Tue 11:14:30 AM 41.4667 -87.3167 318° Northwest 368 423 11,000 -496 Descending Chicago TRACON
Tue 11:15:25 AM 41.5333 -87.4000 317° Northwest 355 409 11,000  Level Chicago TRACON
Tue 11:16:25 AM 41.6167 -87.4833 323° Northwest 356 410 11,000  Level Chicago TRACON
Tue 11:17:25 AM 41.6833 -87.5667 317° Northwest 330 380 11,000  Level Chicago TRACON
Tue 11:18:25 AM 41.7500 -87.6333 323° Northwest 296 341 11,000 -650 Level Chicago TRACON
Tue 11:19:25 AM 41.8167 -87.7000 323° Northwest 293 337 9,700 -1,050 Descending Chicago TRACON
Tue 11:20:25 AM 41.8667 -87.7833 309° West 275 316 8,900 -1,250 Descending Chicago TRACON
Tue 11:21:25 AM 41.9000 -87.8667 298° West 272 313 7,200 -1,000 Descending Chicago TRACON
Tue 11:22:19 AM 41.9167 -87.9500 285° West 274 315 7,000 -105 Descending Chicago TRACON
Tue 11:23:19 AM 41.9667 -88.0167 315° West 247 284 7,000 -300 Level Chicago TRACON
Tue 11:24:19 AM 42.0000 -88.0833 304° West 225 259 6,400 -950 Descending Chicago TRACON
Tue 11:25:19 AM 42.0500 -88.1500 315° West 221 254 5,100 -1,271 Descending Chicago TRACON
Tue 11:25:44 AM 42.0653 -88.1633 327° Northwest 224 258 4,600 -759 Descending Chicago Center
Tue 11:26:46 AM 42.1161 -88.1361 22° Northeast 242 278 4,000 -438 Descending Chicago Center
Tue 11:27:20 AM 42.1167 -88.0833 89° East 229 264 3,900 -176 Descending Chicago TRACON

Login

Don't have an account? Register now (free) for customized features, flight alerts, and more!